sensor_id;sensor_type;location;lat;lon;timestamp;temperature;humidity
15543;DHT22;7873;52.230;12.856;2024-01-16T00:01:58;26.80;29.90
15543;DHT22;7873;52.230;12.856;2024-01-16T00:04:25;26.80;29.90
15543;DHT22;7873;52.230;12.856;2024-01-16T00:06:52;26.80;30.00
15543;DHT22;7873;52.230;12.856;2024-01-16T00:09:18;26.70;30.00
15543;DHT22;7873;52.230;12.856;2024-01-16T00:11:45;26.70;30.00
15543;DHT22;7873;52.230;12.856;2024-01-16T00:14:11;26.70;30.00
15543;DHT22;7873;52.230;12.856;2024-01-16T00:16:41;26.70;30.10
15543;DHT22;7873;52.230;12.856;2024-01-16T00:19:10;26.60;30.10
15543;DHT22;7873;52.230;12.856;2024-01-16T00:21:38;26.60;30.10
15543;DHT22;7873;52.230;12.856;2024-01-16T00:24:06;26.50;30.20
15543;DHT22;7873;52.230;12.856;2024-01-16T00:26:33;26.40;30.30
15543;DHT22;7873;52.230;12.856;2024-01-16T00:28:59;26.40;30.40
15543;DHT22;7873;52.230;12.856;2024-01-16T00:31:26;26.30;30.40
15543;DHT22;7873;52.230;12.856;2024-01-16T00:33:52;26.30;30.60
15543;DHT22;7873;52.230;12.856;2024-01-16T00:36:20;26.30;30.60
15543;DHT22;7873;52.230;12.856;2024-01-16T00:38:47;26.20;30.70
15543;DHT22;7873;52.230;12.856;2024-01-16T00:41:13;26.20;30.90
15543;DHT22;7873;52.230;12.856;2024-01-16T00:43:40;26.10;30.90
15543;DHT22;7873;52.230;12.856;2024-01-16T00:46:07;26.00;31.00
15543;DHT22;7873;52.230;12.856;2024-01-16T00:48:33;26.00;31.10
15543;DHT22;7873;52.230;12.856;2024-01-16T00:51:00;26.00;31.20
15543;DHT22;7873;52.230;12.856;2024-01-16T00:53:27;25.90;31.20
15543;DHT22;7873;52.230;12.856;2024-01-16T00:55:55;25.90;31.20
15543;DHT22;7873;52.230;12.856;2024-01-16T00:58:21;25.90;31.30
15543;DHT22;7873;52.230;12.856;2024-01-16T01:00:48;25.80;31.40
15543;DHT22;7873;52.230;12.856;2024-01-16T01:03:15;25.80;32.20
15543;DHT22;7873;52.230;12.856;2024-01-16T01:05:41;25.70;31.40
15543;DHT22;7873;52.230;12.856;2024-01-16T01:08:08;25.70;31.50
15543;DHT22;7873;52.230;12.856;2024-01-16T01:10:36;25.70;31.60
15543;DHT22;7873;52.230;12.856;2024-01-16T01:13:02;25.70;31.60
15543;DHT22;7873;52.230;12.856;2024-01-16T01:15:29;25.60;31.70
15543;DHT22;7873;52.230;12.856;2024-01-16T01:17:56;25.60;31.80
15543;DHT22;7873;52.230;12.856;2024-01-16T01:20:22;25.60;31.80
15543;DHT22;7873;52.230;12.856;2024-01-16T01:22:49;25.50;31.90
15543;DHT22;7873;52.230;12.856;2024-01-16T01:25:15;25.50;31.90
15543;DHT22;7873;52.230;12.856;2024-01-16T01:27:43;25.50;32.00
15543;DHT22;7873;52.230;12.856;2024-01-16T01:30:11;25.40;32.10
15543;DHT22;7873;52.230;12.856;2024-01-16T01:32:38;25.30;32.10
15543;DHT22;7873;52.230;12.856;2024-01-16T01:35:05;25.30;32.20
15543;DHT22;7873;52.230;12.856;2024-01-16T01:37:32;25.30;32.20
15543;DHT22;7873;52.230;12.856;2024-01-16T01:39:58;25.30;32.30
15543;DHT22;7873;52.230;12.856;2024-01-16T01:42:25;25.20;32.30
15543;DHT22;7873;52.230;12.856;2024-01-16T01:44:54;25.20;32.30
15543;DHT22;7873;52.230;12.856;2024-01-16T01:47:21;25.20;32.40
15543;DHT22;7873;52.230;12.856;2024-01-16T01:49:48;25.20;32.40
15543;DHT22;7873;52.230;12.856;2024-01-16T01:52:14;25.20;32.50
15543;DHT22;7873;52.230;12.856;2024-01-16T01:54:41;25.20;32.40
15543;DHT22;7873;52.230;12.856;2024-01-16T01:57:09;25.20;32.50
15543;DHT22;7873;52.230;12.856;2024-01-16T01:59:35;25.10;32.50
15543;DHT22;7873;52.230;12.856;2024-01-16T02:02:05;25.10;32.50
15543;DHT22;7873;52.230;12.856;2024-01-16T02:04:32;25.10;32.60
15543;DHT22;7873;52.230;12.856;2024-01-16T02:07:01;25.00;32.60
15543;DHT22;7873;52.230;12.856;2024-01-16T02:09:29;25.00;32.60
15543;DHT22;7873;52.230;12.856;2024-01-16T02:11:55;25.00;32.60
15543;DHT22;7873;52.230;12.856;2024-01-16T02:14:22;25.00;32.80
15543;DHT22;7873;52.230;12.856;2024-01-16T02:16:50;24.90;32.80
15543;DHT22;7873;52.230;12.856;2024-01-16T02:19:18;24.90;32.80
15543;DHT22;7873;52.230;12.856;2024-01-16T02:21:46;24.90;32.90
15543;DHT22;7873;52.230;12.856;2024-01-16T02:24:15;24.90;32.90
15543;DHT22;7873;52.230;12.856;2024-01-16T02:26:43;24.90;33.00
15543;DHT22;7873;52.230;12.856;2024-01-16T02:29:10;24.80;33.00
15543;DHT22;7873;52.230;12.856;2024-01-16T02:31:37;24.80;33.10
15543;DHT22;7873;52.230;12.856;2024-01-16T02:34:03;24.80;33.10
15543;DHT22;7873;52.230;12.856;2024-01-16T02:36:30;24.80;33.20
15543;DHT22;7873;52.230;12.856;2024-01-16T02:38:58;24.70;33.20
15543;DHT22;7873;52.230;12.856;2024-01-16T02:41:28;24.70;33.20
15543;DHT22;7873;52.230;12.856;2024-01-16T02:43:54;24.70;33.30
15543;DHT22;7873;52.230;12.856;2024-01-16T02:46:21;24.70;33.30
15543;DHT22;7873;52.230;12.856;2024-01-16T02:48:48;24.60;33.40
15543;DHT22;7873;52.230;12.856;2024-01-16T02:51:15;24.60;33.30
15543;DHT22;7873;52.230;12.856;2024-01-16T02:53:42;24.60;33.30
15543;DHT22;7873;52.230;12.856;2024-01-16T02:56:08;24.60;33.30
15543;DHT22;7873;52.230;12.856;2024-01-16T02:58:36;24.60;33.50
15543;DHT22;7873;52.230;12.856;2024-01-16T03:01:04;24.60;33.40
15543;DHT22;7873;52.230;12.856;2024-01-16T03:03:31;24.60;33.50
15543;DHT22;7873;52.230;12.856;2024-01-16T03:05:57;24.50;33.50
15543;DHT22;7873;52.230;12.856;2024-01-16T03:08:24;24.50;33.50
15543;DHT22;7873;52.230;12.856;2024-01-16T03:10:51;24.50;33.60
15543;DHT22;7873;52.230;12.856;2024-01-16T03:13:19;24.40;33.50
15543;DHT22;7873;52.230;12.856;2024-01-16T03:15:46;24.40;33.70
15543;DHT22;7873;52.230;12.856;2024-01-16T03:18:13;24.30;33.70
15543;DHT22;7873;52.230;12.856;2024-01-16T03:20:39;24.30;33.80
15543;DHT22;7873;52.230;12.856;2024-01-16T03:23:06;24.30;33.80
15543;DHT22;7873;52.230;12.856;2024-01-16T03:25:32;24.20;33.80
15543;DHT22;7873;52.230;12.856;2024-01-16T03:28:04;24.20;33.90
15543;DHT22;7873;52.230;12.856;2024-01-16T03:30:33;24.10;34.00
15543;DHT22;7873;52.230;12.856;2024-01-16T03:33:01;24.10;34.00
15543;DHT22;7873;52.230;12.856;2024-01-16T03:35:28;24.10;34.00
15543;DHT22;7873;52.230;12.856;2024-01-16T03:37:54;24.10;34.00
15543;DHT22;7873;52.230;12.856;2024-01-16T03:40:21;24.10;34.00
15543;DHT22;7873;52.230;12.856;2024-01-16T03:42:47;24.10;34.00
15543;DHT22;7873;52.230;12.856;2024-01-16T03:45:14;24.10;34.10
15543;DHT22;7873;52.230;12.856;2024-01-16T03:47:40;24.10;34.00
15543;DHT22;7873;52.230;12.856;2024-01-16T03:50:08;24.10;34.00
15543;DHT22;7873;52.230;12.856;2024-01-16T03:52:36;24.10;33.90
15543;DHT22;7873;52.230;12.856;2024-01-16T03:55:03;24.10;34.30
15543;DHT22;7873;52.230;12.856;2024-01-16T03:57:30;24.10;34.30
15543;DHT22;7873;52.230;12.856;2024-01-16T03:59:57;24.20;34.10
15543;DHT22;7873;52.230;12.856;2024-01-16T04:02:23;24.20;33.80
15543;DHT22;7873;52.230;12.856;2024-01-16T04:04:51;24.30;33.40
15543;DHT22;7873;52.230;12.856;2024-01-16T04:07:19;24.40;33.00
15543;DHT22;7873;52.230;12.856;2024-01-16T04:09:48;24.40;32.80
15543;DHT22;7873;52.230;12.856;2024-01-16T04:12:15;24.50;32.60
15543;DHT22;7873;52.230;12.856;2024-01-16T04:14:41;24.60;32.50
15543;DHT22;7873;52.230;12.856;2024-01-16T04:17:08;24.60;32.30
15543;DHT22;7873;52.230;12.856;2024-01-16T04:19:34;24.70;33.00
15543;DHT22;7873;52.230;12.856;2024-01-16T04:22:01;24.70;32.20
15543;DHT22;7873;52.230;12.856;2024-01-16T04:24:29;24.70;32.20
15543;DHT22;7873;52.230;12.856;2024-01-16T04:26:55;24.70;32.10
15543;DHT22;7873;52.230;12.856;2024-01-16T04:29:21;24.70;32.10
15543;DHT22;7873;52.230;12.856;2024-01-16T04:31:48;24.70;32.10
15543;DHT22;7873;52.230;12.856;2024-01-16T04:34:14;24.80;32.10
15543;DHT22;7873;52.230;12.856;2024-01-16T04:36:41;24.70;32.20
15543;DHT22;7873;52.230;12.856;2024-01-16T04:39:08;24.60;32.30
15543;DHT22;7873;52.230;12.856;2024-01-16T04:41:36;24.50;32.80
15543;DHT22;7873;52.230;12.856;2024-01-16T04:44:03;24.40;33.10
15543;DHT22;7873;52.230;12.856;2024-01-16T04:46:29;24.30;32.80
15543;DHT22;7873;52.230;12.856;2024-01-16T04:48:56;24.20;33.30
15543;DHT22;7873;52.230;12.856;2024-01-16T04:51:22;24.20;33.10
15543;DHT22;7873;52.230;12.856;2024-01-16T04:53:49;24.10;33.60
15543;DHT22;7873;52.230;12.856;2024-01-16T04:56:15;24.00;34.00
15543;DHT22;7873;52.230;12.856;2024-01-16T04:58:43;23.90;34.00
15543;DHT22;7873;52.230;12.856;2024-01-16T05:01:10;23.90;34.20
15543;DHT22;7873;52.230;12.856;2024-01-16T05:03:36;23.90;34.30
15543;DHT22;7873;52.230;12.856;2024-01-16T05:06:02;23.80;34.20
15543;DHT22;7873;52.230;12.856;2024-01-16T05:08:29;23.90;34.20
15543;DHT22;7873;52.230;12.856;2024-01-16T05:10:56;23.90;34.30
15543;DHT22;7873;52.230;12.856;2024-01-16T05:13:22;23.90;34.10
15543;DHT22;7873;52.230;12.856;2024-01-16T05:15:50;23.90;33.50
15543;DHT22;7873;52.230;12.856;2024-01-16T05:18:17;24.00;32.90
15543;DHT22;7873;52.230;12.856;2024-01-16T05:20:43;24.10;32.20
15543;DHT22;7873;52.230;12.856;2024-01-16T05:23:10;24.20;31.70
15543;DHT22;7873;52.230;12.856;2024-01-16T05:25:36;24.30;31.40
15543;DHT22;7873;52.230;12.856;2024-01-16T05:28:03;24.30;32.40
15543;DHT22;7873;52.230;12.856;2024-01-16T05:30:30;24.40;31.70
15543;DHT22;7873;52.230;12.856;2024-01-16T05:32:59;24.30;31.30
15543;DHT22;7873;52.230;12.856;2024-01-16T05:35:26;24.30;30.90
15543;DHT22;7873;52.230;12.856;2024-01-16T05:37:52;24.30;31.40
15543;DHT22;7873;52.230;12.856;2024-01-16T05:40:20;24.40;31.70
15543;DHT22;7873;52.230;12.856;2024-01-16T05:42:47;24.30;31.70
15543;DHT22;7873;52.230;12.856;2024-01-16T05:45:14;24.40;31.10
15543;DHT22;7873;52.230;12.856;2024-01-16T05:47:40;24.40;31.10
15543;DHT22;7873;52.230;12.856;2024-01-16T05:50:08;24.50;30.90
15543;DHT22;7873;52.230;12.856;2024-01-16T05:52:35;24.50;30.80
15543;DHT22;7873;52.230;12.856;2024-01-16T05:55:01;24.50;30.90
15543;DHT22;7873;52.230;12.856;2024-01-16T05:57:29;24.50;30.70
15543;DHT22;7873;52.230;12.856;2024-01-16T05:59:58;24.60;31.00
15543;DHT22;7873;52.230;12.856;2024-01-16T06:02:25;24.50;30.60
15543;DHT22;7873;52.230;12.856;2024-01-16T06:04:51;24.50;30.80
15543;DHT22;7873;52.230;12.856;2024-01-16T06:07:19;24.50;30.80
15543;DHT22;7873;52.230;12.856;2024-01-16T06:09:45;24.50;30.90
15543;DHT22;7873;52.230;12.856;2024-01-16T06:12:12;24.20;28.80
15543;DHT22;7873;52.230;12.856;2024-01-16T06:14:39;22.50;26.10
15543;DHT22;7873;52.230;12.856;2024-01-16T06:17:05;21.30;27.00
15543;DHT22;7873;52.230;12.856;2024-01-16T06:19:32;20.30;27.90
15543;DHT22;7873;52.230;12.856;2024-01-16T06:21:59;19.50;28.80
15543;DHT22;7873;52.230;12.856;2024-01-16T06:24:26;19.00;29.40
15543;DHT22;7873;52.230;12.856;2024-01-16T06:26:54;19.10;30.70
15543;DHT22;7873;52.230;12.856;2024-01-16T06:29:20;19.80;30.50
15543;DHT22;7873;52.230;12.856;2024-01-16T06:31:47;20.30;30.00
15543;DHT22;7873;52.230;12.856;2024-01-16T06:34:14;20.70;29.90
15543;DHT22;7873;52.230;12.856;2024-01-16T06:36:41;20.90;29.80
15543;DHT22;7873;52.230;12.856;2024-01-16T06:39:07;21.10;30.00
15543;DHT22;7873;52.230;12.856;2024-01-16T06:41:35;21.20;30.40
15543;DHT22;7873;52.230;12.856;2024-01-16T06:44:01;21.40;30.00
15543;DHT22;7873;52.230;12.856;2024-01-16T06:46:28;21.50;30.00
15543;DHT22;7873;52.230;12.856;2024-01-16T06:48:54;21.70;30.00
15543;DHT22;7873;52.230;12.856;2024-01-16T06:51:21;21.90;29.80
15543;DHT22;7873;52.230;12.856;2024-01-16T06:53:48;21.90;29.80
15543;DHT22;7873;52.230;12.856;2024-01-16T06:56:14;22.00;29.90
15543;DHT22;7873;52.230;12.856;2024-01-16T06:58:42;22.00;30.00
15543;DHT22;7873;52.230;12.856;2024-01-16T07:01:09;22.00;30.00
15543;DHT22;7873;52.230;12.856;2024-01-16T07:03:35;21.90;30.10
15543;DHT22;7873;52.230;12.856;2024-01-16T07:06:03;21.90;30.20
15543;DHT22;7873;52.230;12.856;2024-01-16T07:08:29;21.90;30.40
15543;DHT22;7873;52.230;12.856;2024-01-16T07:10:56;21.90;30.00
15543;DHT22;7873;52.230;12.856;2024-01-16T07:13:22;21.90;30.60
15543;DHT22;7873;52.230;12.856;2024-01-16T07:15:50;21.90;30.60
15543;DHT22;7873;52.230;12.856;2024-01-16T07:18:16;21.90;30.70
15543;DHT22;7873;52.230;12.856;2024-01-16T07:20:43;21.90;30.90
15543;DHT22;7873;52.230;12.856;2024-01-16T07:23:10;21.80;31.00
15543;DHT22;7873;52.230;12.856;2024-01-16T07:25:37;21.80;31.10
15543;DHT22;7873;52.230;12.856;2024-01-16T07:28:05;21.80;31.20
15543;DHT22;7873;52.230;12.856;2024-01-16T07:30:31;21.70;31.40
15543;DHT22;7873;52.230;12.856;2024-01-16T07:32:59;21.70;31.40
15543;DHT22;7873;52.230;12.856;2024-01-16T07:35:25;21.70;31.60
15543;DHT22;7873;52.230;12.856;2024-01-16T07:37:52;21.70;31.60
15543;DHT22;7873;52.230;12.856;2024-01-16T07:40:18;21.60;31.60
15543;DHT22;7873;52.230;12.856;2024-01-16T07:42:45;21.60;31.10
15543;DHT22;7873;52.230;12.856;2024-01-16T07:45:12;21.60;31.90
15543;DHT22;7873;52.230;12.856;2024-01-16T07:47:38;21.60;32.00
15543;DHT22;7873;52.230;12.856;2024-01-16T07:50:07;21.60;32.10
15543;DHT22;7873;52.230;12.856;2024-01-16T07:52:34;21.50;31.50
15543;DHT22;7873;52.230;12.856;2024-01-16T07:55:00;21.50;32.30
15543;DHT22;7873;52.230;12.856;2024-01-16T07:57:28;21.50;32.30
15543;DHT22;7873;52.230;12.856;2024-01-16T07:59:54;21.50;32.40
15543;DHT22;7873;52.230;12.856;2024-01-16T08:02:21;21.50;32.40
15543;DHT22;7873;52.230;12.856;2024-01-16T08:04:47;21.50;32.60
15543;DHT22;7873;52.230;12.856;2024-01-16T08:07:15;21.40;32.50
15543;DHT22;7873;52.230;12.856;2024-01-16T08:09:41;21.40;32.60
15543;DHT22;7873;52.230;12.856;2024-01-16T08:12:08;21.40;32.60
15543;DHT22;7873;52.230;12.856;2024-01-16T08:14:34;21.40;32.70
15543;DHT22;7873;52.230;12.856;2024-01-16T08:17:01;21.40;32.70
15543;DHT22;7873;52.230;12.856;2024-01-16T08:19:27;21.40;32.80
15543;DHT22;7873;52.230;12.856;2024-01-16T08:21:54;21.30;32.80
15543;DHT22;7873;52.230;12.856;2024-01-16T08:24:22;21.30;32.80
15543;DHT22;7873;52.230;12.856;2024-01-16T08:26:48;21.30;32.80
15543;DHT22;7873;52.230;12.856;2024-01-16T08:29:15;21.30;32.80
15543;DHT22;7873;52.230;12.856;2024-01-16T08:31:41;21.30;32.80
15543;DHT22;7873;52.230;12.856;2024-01-16T08:34:08;21.30;32.80
15543;DHT22;7873;52.230;12.856;2024-01-16T08:36:34;21.30;32.80
15543;DHT22;7873;52.230;12.856;2024-01-16T08:39:01;21.30;32.80
15543;DHT22;7873;52.230;12.856;2024-01-16T08:41:29;21.30;32.30
15543;DHT22;7873;52.230;12.856;2024-01-16T08:43:57;21.30;33.00
15543;DHT22;7873;52.230;12.856;2024-01-16T08:46:23;21.30;33.00
15543;DHT22;7873;52.230;12.856;2024-01-16T08:48:50;21.30;33.00
15543;DHT22;7873;52.230;12.856;2024-01-16T08:51:16;21.30;33.10
15543;DHT22;7873;52.230;12.856;2024-01-16T08:53:43;21.20;33.10
15543;DHT22;7873;52.230;12.856;2024-01-16T08:56:09;21.30;33.30
15543;DHT22;7873;52.230;12.856;2024-01-16T08:58:38;21.20;33.30
15543;DHT22;7873;52.230;12.856;2024-01-16T09:01:05;21.20;33.30
15543;DHT22;7873;52.230;12.856;2024-01-16T09:03:32;21.20;33.40
15543;DHT22;7873;52.230;12.856;2024-01-16T09:05:59;21.20;33.40
15543;DHT22;7873;52.230;12.856;2024-01-16T09:08:26;21.20;33.40
15543;DHT22;7873;52.230;12.856;2024-01-16T09:10:53;21.20;33.40
15543;DHT22;7873;52.230;12.856;2024-01-16T09:13:19;21.20;33.50
15543;DHT22;7873;52.230;12.856;2024-01-16T09:15:49;21.20;33.50
15543;DHT22;7873;52.230;12.856;2024-01-16T09:18:15;21.20;33.50
15543;DHT22;7873;52.230;12.856;2024-01-16T09:20:42;21.20;33.20
15543;DHT22;7873;52.230;12.856;2024-01-16T09:23:09;21.20;33.10
15543;DHT22;7873;52.230;12.856;2024-01-16T09:25:35;21.20;33.10
15543;DHT22;7873;52.230;12.856;2024-01-16T09:28:02;21.20;33.00
15543;DHT22;7873;52.230;12.856;2024-01-16T09:30:29;21.30;33.00
15543;DHT22;7873;52.230;12.856;2024-01-16T09:32:57;21.30;32.80
15543;DHT22;7873;52.230;12.856;2024-01-16T09:35:24;21.30;32.60
15543;DHT22;7873;52.230;12.856;2024-01-16T09:37:50;21.30;32.70
15543;DHT22;7873;52.230;12.856;2024-01-16T09:40:17;21.30;32.50
15543;DHT22;7873;52.230;12.856;2024-01-16T09:42:43;21.30;32.40
15543;DHT22;7873;52.230;12.856;2024-01-16T09:45:10;21.30;32.40
15543;DHT22;7873;52.230;12.856;2024-01-16T09:47:45;21.30;32.40
15543;DHT22;7873;52.230;12.856;2024-01-16T09:50:14;21.30;32.30
15543;DHT22;7873;52.230;12.856;2024-01-16T09:52:42;21.30;32.30
15543;DHT22;7873;52.230;12.856;2024-01-16T09:55:09;21.30;32.30
15543;DHT22;7873;52.230;12.856;2024-01-16T09:57:36;21.30;32.30
15543;DHT22;7873;52.230;12.856;2024-01-16T10:00:06;21.30;32.30
15543;DHT22;7873;52.230;12.856;2024-01-16T10:02:37;21.30;32.30
15543;DHT22;7873;52.230;12.856;2024-01-16T10:05:04;21.30;32.40
15543;DHT22;7873;52.230;12.856;2024-01-16T10:07:32;21.20;32.30
15543;DHT22;7873;52.230;12.856;2024-01-16T10:09:59;21.30;32.30
15543;DHT22;7873;52.230;12.856;2024-01-16T10:12:26;21.30;32.30
15543;DHT22;7873;52.230;12.856;2024-01-16T10:14:53;21.30;32.40
15543;DHT22;7873;52.230;12.856;2024-01-16T10:17:21;21.20;32.40
15543;DHT22;7873;52.230;12.856;2024-01-16T10:19:48;21.20;32.30
15543;DHT22;7873;52.230;12.856;2024-01-16T10:22:19;21.20;32.30
15543;DHT22;7873;52.230;12.856;2024-01-16T10:24:48;21.20;32.30
15543;DHT22;7873;52.230;12.856;2024-01-16T10:27:16;21.20;32.40
15543;DHT22;7873;52.230;12.856;2024-01-16T10:29:51;21.20;32.40
15543;DHT22;7873;52.230;12.856;2024-01-16T10:32:26;21.20;32.40
15543;DHT22;7873;52.230;12.856;2024-01-16T10:35:00;21.20;32.50
15543;DHT22;7873;52.230;12.856;2024-01-16T10:37:29;21.20;32.50
15543;DHT22;7873;52.230;12.856;2024-01-16T10:39:57;21.10;32.40
15543;DHT22;7873;52.230;12.856;2024-01-16T10:42:23;21.10;32.40
15543;DHT22;7873;52.230;12.856;2024-01-16T10:44:53;21.10;32.50
15543;DHT22;7873;52.230;12.856;2024-01-16T10:47:21;21.20;32.60
15543;DHT22;7873;52.230;12.856;2024-01-16T10:49:48;21.10;32.50
15543;DHT22;7873;52.230;12.856;2024-01-16T10:52:14;21.10;33.20
15543;DHT22;7873;52.230;12.856;2024-01-16T10:54:44;21.10;32.50
15543;DHT22;7873;52.230;12.856;2024-01-16T10:57:16;21.10;32.60
15543;DHT22;7873;52.230;12.856;2024-01-16T10:59:45;21.10;32.60
15543;DHT22;7873;52.230;12.856;2024-01-16T11:02:16;21.10;32.50
15543;DHT22;7873;52.230;12.856;2024-01-16T11:04:47;21.10;32.50
15543;DHT22;7873;52.230;12.856;2024-01-16T11:07:15;21.00;32.50
15543;DHT22;7873;52.230;12.856;2024-01-16T11:09:43;21.10;32.60
15543;DHT22;7873;52.230;12.856;2024-01-16T11:12:10;21.10;32.60
15543;DHT22;7873;52.230;12.856;2024-01-16T11:14:43;21.10;32.60
15543;DHT22;7873;52.230;12.856;2024-01-16T11:17:11;21.00;32.50
15543;DHT22;7873;52.230;12.856;2024-01-16T11:19:43;21.10;32.50
15543;DHT22;7873;52.230;12.856;2024-01-16T11:22:10;21.00;32.50
15543;DHT22;7873;52.230;12.856;2024-01-16T11:24:37;21.00;32.50
15543;DHT22;7873;52.230;12.856;2024-01-16T11:27:04;21.00;32.50
15543;DHT22;7873;52.230;12.856;2024-01-16T11:29:33;21.00;32.50
15543;DHT22;7873;52.230;12.856;2024-01-16T11:32:02;21.00;32.60
15543;DHT22;7873;52.230;12.856;2024-01-16T11:37:28;21.00;32.50
15543;DHT22;7873;52.230;12.856;2024-01-16T11:42:50;21.00;32.60
15543;DHT22;7873;52.230;12.856;2024-01-16T11:48:18;20.90;32.60
15543;DHT22;7873;52.230;12.856;2024-01-16T11:50:47;20.90;32.70
15543;DHT22;7873;52.230;12.856;2024-01-16T11:53:32;20.90;33.40
15543;DHT22;7873;52.230;12.856;2024-01-16T11:59:27;20.90;32.70
15543;DHT22;7873;52.230;12.856;2024-01-16T12:02:10;20.90;32.70
15543;DHT22;7873;52.230;12.856;2024-01-16T12:04:41;20.80;32.70
15543;DHT22;7873;52.230;12.856;2024-01-16T12:07:09;20.80;32.70
15543;DHT22;7873;52.230;12.856;2024-01-16T12:09:36;20.80;32.80
15543;DHT22;7873;52.230;12.856;2024-01-16T12:12:03;20.80;32.70
15543;DHT22;7873;52.230;12.856;2024-01-16T12:14:30;20.90;32.80
15543;DHT22;7873;52.230;12.856;2024-01-16T12:19:42;20.80;32.70
15543;DHT22;7873;52.230;12.856;2024-01-16T12:22:09;20.80;32.70
15543;DHT22;7873;52.230;12.856;2024-01-16T12:24:36;20.80;32.70
15543;DHT22;7873;52.230;12.856;2024-01-16T12:27:03;20.80;32.70
15543;DHT22;7873;52.230;12.856;2024-01-16T12:29:30;20.80;32.80
15543;DHT22;7873;52.230;12.856;2024-01-16T12:32:04;20.80;32.70
15543;DHT22;7873;52.230;12.856;2024-01-16T12:34:32;20.80;32.70
15543;DHT22;7873;52.230;12.856;2024-01-16T12:37:05;20.80;32.70
15543;DHT22;7873;52.230;12.856;2024-01-16T12:39:32;20.80;32.70
15543;DHT22;7873;52.230;12.856;2024-01-16T12:42:00;20.70;32.60
15543;DHT22;7873;52.230;12.856;2024-01-16T12:44:27;20.70;32.70
15543;DHT22;7873;52.230;12.856;2024-01-16T12:46:54;20.70;32.70
15543;DHT22;7873;52.230;12.856;2024-01-16T12:49:21;20.70;32.70
15543;DHT22;7873;52.230;12.856;2024-01-16T12:51:48;20.70;32.70
15543;DHT22;7873;52.230;12.856;2024-01-16T12:54:17;20.70;32.70
15543;DHT22;7873;52.230;12.856;2024-01-16T12:56:47;20.70;32.60
15543;DHT22;7873;52.230;12.856;2024-01-16T12:59:14;20.70;32.60
15543;DHT22;7873;52.230;12.856;2024-01-16T13:01:41;20.70;32.70
15543;DHT22;7873;52.230;12.856;2024-01-16T13:04:09;20.70;32.70
15543;DHT22;7873;52.230;12.856;2024-01-16T13:06:36;20.70;32.70
15543;DHT22;7873;52.230;12.856;2024-01-16T13:09:06;20.70;32.70
15543;DHT22;7873;52.230;12.856;2024-01-16T13:11:45;20.70;32.70
15543;DHT22;7873;52.230;12.856;2024-01-16T13:14:12;20.60;32.70
15543;DHT22;7873;52.230;12.856;2024-01-16T13:16:39;20.60;32.60
15543;DHT22;7873;52.230;12.856;2024-01-16T13:19:05;20.60;32.60
15543;DHT22;7873;52.230;12.856;2024-01-16T13:21:35;20.60;32.70
15543;DHT22;7873;52.230;12.856;2024-01-16T13:24:02;20.60;32.70
15543;DHT22;7873;52.230;12.856;2024-01-16T13:26:29;20.60;32.70
15543;DHT22;7873;52.230;12.856;2024-01-16T13:28:58;20.60;32.80
15543;DHT22;7873;52.230;12.856;2024-01-16T13:31:25;20.60;32.80
15543;DHT22;7873;52.230;12.856;2024-01-16T13:33:51;20.60;32.90
15543;DHT22;7873;52.230;12.856;2024-01-16T13:36:18;20.60;32.90
15543;DHT22;7873;52.230;12.856;2024-01-16T13:38:45;20.60;32.80
15543;DHT22;7873;52.230;12.856;2024-01-16T13:41:12;20.60;32.80
15543;DHT22;7873;52.230;12.856;2024-01-16T13:43:38;20.60;33.60
15543;DHT22;7873;52.230;12.856;2024-01-16T13:46:06;20.60;32.80
15543;DHT22;7873;52.230;12.856;2024-01-16T13:48:35;20.60;32.80
15543;DHT22;7873;52.230;12.856;2024-01-16T13:51:02;20.60;32.80
15543;DHT22;7873;52.230;12.856;2024-01-16T13:53:29;20.60;32.80
15543;DHT22;7873;52.230;12.856;2024-01-16T13:55:56;20.60;32.90
15543;DHT22;7873;52.230;12.856;2024-01-16T13:58:23;20.50;32.80
15543;DHT22;7873;52.230;12.856;2024-01-16T14:00:50;20.50;32.80
15543;DHT22;7873;52.230;12.856;2024-01-16T14:03:18;20.50;32.80
15543;DHT22;7873;52.230;12.856;2024-01-16T14:05:45;20.50;32.80
15543;DHT22;7873;52.230;12.856;2024-01-16T14:08:12;20.50;32.80
15543;DHT22;7873;52.230;12.856;2024-01-16T14:10:39;20.50;32.80
15543;DHT22;7873;52.230;12.856;2024-01-16T14:13:06;20.50;32.80
15543;DHT22;7873;52.230;12.856;2024-01-16T14:15:33;20.50;32.80
15543;DHT22;7873;52.230;12.856;2024-01-16T14:17:59;20.50;32.80
15543;DHT22;7873;52.230;12.856;2024-01-16T14:20:27;20.50;32.80
15543;DHT22;7873;52.230;12.856;2024-01-16T14:22:53;20.50;32.80
15543;DHT22;7873;52.230;12.856;2024-01-16T14:25:20;20.50;32.80
15543;DHT22;7873;52.230;12.856;2024-01-16T14:27:48;20.50;32.80
15543;DHT22;7873;52.230;12.856;2024-01-16T14:30:21;20.40;32.70
15543;DHT22;7873;52.230;12.856;2024-01-16T14:32:48;20.40;32.80
15543;DHT22;7873;52.230;12.856;2024-01-16T14:35:14;20.40;32.70
15543;DHT22;7873;52.230;12.856;2024-01-16T14:37:43;20.40;32.70
15543;DHT22;7873;52.230;12.856;2024-01-16T14:40:10;20.40;32.80
15543;DHT22;7873;52.230;12.856;2024-01-16T14:42:38;20.40;32.80
15543;DHT22;7873;52.230;12.856;2024-01-16T14:45:05;20.30;32.80
15543;DHT22;7873;52.230;12.856;2024-01-16T14:47:32;20.30;32.80
15543;DHT22;7873;52.230;12.856;2024-01-16T14:49:59;20.40;32.90
15543;DHT22;7873;52.230;12.856;2024-01-16T14:52:25;20.40;32.90
15543;DHT22;7873;52.230;12.856;2024-01-16T14:54:53;20.30;32.80
15543;DHT22;7873;52.230;12.856;2024-01-16T14:57:20;20.30;33.60
15543;DHT22;7873;52.230;12.856;2024-01-16T14:59:46;20.30;32.80
15543;DHT22;7873;52.230;12.856;2024-01-16T15:02:13;20.30;32.80
15543;DHT22;7873;52.230;12.856;2024-01-16T15:04:41;20.30;32.90
15543;DHT22;7873;52.230;12.856;2024-01-16T15:07:08;20.30;32.80
15543;DHT22;7873;52.230;12.856;2024-01-16T15:09:34;20.30;32.80
15543;DHT22;7873;52.230;12.856;2024-01-16T15:12:05;20.30;32.80
15543;DHT22;7873;52.230;12.856;2024-01-16T15:14:32;20.30;32.90
15543;DHT22;7873;52.230;12.856;2024-01-16T15:16:59;20.20;33.30
15543;DHT22;7873;52.230;12.856;2024-01-16T15:19:26;20.00;31.80
15543;DHT22;7873;52.230;12.856;2024-01-16T15:21:52;19.50;31.10
15543;DHT22;7873;52.230;12.856;2024-01-16T15:24:19;19.00;31.10
15543;DHT22;7873;52.230;12.856;2024-01-16T15:26:51;18.70;31.50
15543;DHT22;7873;52.230;12.856;2024-01-16T15:29:19;18.60;31.30
15543;DHT22;7873;52.230;12.856;2024-01-16T15:31:46;18.30;30.90
15543;DHT22;7873;52.230;12.856;2024-01-16T15:34:12;18.40;31.40
15543;DHT22;7873;52.230;12.856;2024-01-16T15:36:39;18.20;31.40
15543;DHT22;7873;52.230;12.856;2024-01-16T15:39:05;18.20;31.30
15543;DHT22;7873;52.230;12.856;2024-01-16T15:41:33;18.30;31.70
15543;DHT22;7873;52.230;12.856;2024-01-16T15:43:59;18.40;31.00
15543;DHT22;7873;52.230;12.856;2024-01-16T15:46:29;18.60;30.30